createdAt,value
2018-09-06T00:04:28.890Z,65.94
2018-09-06T00:09:23.294Z,66.08
2018-09-06T00:14:17.137Z,66.29
2018-09-06T00:19:10.206Z,67.03
2018-09-06T00:24:03.191Z,65.78
2018-09-06T00:28:56.217Z,65.45
2018-09-06T00:33:49.159Z,65.27
2018-09-06T00:38:42.283Z,65.33
2018-09-06T00:43:35.371Z,65.53
2018-09-06T00:48:28.472Z,65.38
2018-09-06T00:53:21.490Z,66.10
2018-09-06T00:58:14.493Z,66.32
2018-09-06T01:03:07.572Z,65.71
2018-09-06T01:08:00.623Z,65.80
2018-09-06T01:12:53.632Z,66.28
2018-09-06T01:17:46.882Z,66.75
2018-09-06T01:22:39.852Z,67.05
2018-09-06T01:27:32.971Z,66.60
2018-09-06T01:32:25.912Z,67.71
2018-09-06T01:37:18.939Z,67.48
2018-09-06T01:42:11.926Z,68.08
2018-09-06T01:47:04.868Z,67.33
2018-09-06T01:51:57.833Z,67.40
2018-09-06T01:56:51.078Z,66.59
2018-09-06T02:01:44.118Z,66.60
2018-09-06T02:06:37.118Z,66.54
2018-09-06T02:11:30.072Z,66.01
2018-09-06T02:16:23.004Z,65.54
2018-09-06T02:21:16.085Z,65.34
2018-09-06T02:26:09.190Z,65.35
2018-09-06T02:31:02.325Z,64.92
2018-09-06T02:35:55.241Z,64.46
2018-09-06T02:40:48.266Z,64.93
2018-09-06T02:45:42.568Z,65.03
2018-09-06T02:50:40.914Z,65.77
2018-09-06T02:55:34.177Z,66.23
2018-09-06T03:00:28.563Z,66.81
2018-09-06T03:05:21.955Z,66.67
2018-09-06T03:10:14.945Z,66.97
2018-09-06T03:15:08.005Z,67.26
2018-09-06T03:20:01.069Z,67.73
2018-09-06T03:24:54.275Z,68.26
2018-09-06T03:29:47.449Z,68.46
2018-09-06T03:34:40.490Z,68.92
2018-09-06T03:39:33.515Z,68.82
2018-09-06T03:44:26.621Z,68.82
2018-09-06T03:49:19.741Z,68.99
2018-09-06T03:54:12.859Z,69.27
2018-09-06T03:59:05.971Z,68.80
2018-09-06T04:03:59.213Z,68.56
2018-09-06T04:08:52.262Z,69.17
2018-09-06T04:13:45.255Z,69.30
2018-09-06T04:18:38.289Z,69.15
2018-09-06T04:23:31.478Z,69.71
2018-09-06T04:28:24.606Z,68.74
2018-09-06T04:33:17.811Z,67.81
2018-09-06T04:38:10.810Z,68.09
2018-09-06T04:43:03.818Z,68.53
2018-09-06T04:47:56.730Z,67.24
2018-09-06T04:52:49.797Z,66.94
2018-09-06T04:57:42.830Z,67.19
2018-09-06T05:02:35.752Z,67.36
2018-09-06T05:07:28.753Z,66.82
2018-09-06T05:12:21.808Z,67.55
2018-09-06T05:17:14.972Z,67.85
2018-09-06T05:22:08.075Z,67.04
2018-09-06T05:27:01.873Z,67.35
2018-09-06T05:31:55.103Z,66.83
2018-09-06T05:36:48.309Z,67.30
2018-09-06T05:41:41.910Z,67.17
2018-09-06T05:46:35.082Z,67.85
2018-09-06T05:51:28.263Z,68.18
2018-09-06T05:56:21.234Z,68.75
2018-09-06T06:01:14.680Z,68.48
2018-09-06T06:06:08.020Z,68.37
2018-09-06T06:11:01.157Z,69.45
2018-09-06T06:15:54.183Z,68.61
2018-09-06T06:20:47.247Z,68.20
2018-09-06T06:25:40.648Z,67.96
2018-09-06T06:30:33.635Z,67.65
2018-09-06T06:35:26.708Z,68.29
2018-09-06T06:40:20.327Z,67.85
2018-09-06T06:45:13.471Z,67.83
2018-09-06T06:50:07.171Z,68.12
2018-09-06T06:55:00.324Z,68.62
2018-09-06T06:59:53.416Z,68.10
2018-09-06T07:04:46.334Z,68.62
2018-09-06T07:09:39.431Z,67.15
2018-09-06T07:14:33.543Z,67.53
2018-09-06T07:19:26.601Z,67.68
2018-09-06T07:24:19.796Z,66.67
2018-09-06T07:29:13.059Z,65.84
2018-09-06T07:34:06.151Z,66.28
2018-09-06T07:38:59.243Z,66.60
2018-09-06T07:43:52.793Z,66.77
2018-09-06T07:48:45.908Z,66.80
2018-09-06T07:53:38.883Z,67.46
2018-09-06T07:58:32.070Z,66.78
2018-09-06T08:03:25.355Z,67.76
2018-09-06T08:08:18.502Z,67.89
2018-09-06T08:13:11.504Z,67.95
2018-09-06T08:18:04.767Z,68.19
2018-09-06T08:22:58.312Z,68.10
2018-09-06T08:27:51.472Z,67.55
2018-09-06T08:32:44.679Z,67.41
2018-09-06T08:37:37.734Z,68.47
2018-09-06T08:42:31.070Z,68.07
2018-09-06T08:47:26.305Z,67.51
2018-09-06T08:52:19.576Z,66.83
2018-09-06T08:57:12.719Z,65.42
2018-09-06T09:02:12.232Z,65.25
2018-09-06T09:07:05.326Z,64.20
2018-09-06T09:11:58.538Z,63.62
2018-09-06T09:16:51.613Z,63.38
2018-09-06T09:21:44.716Z,63.47
2018-09-06T09:26:37.843Z,61.92
2018-09-06T09:31:31.361Z,60.25
2018-09-06T09:36:24.358Z,58.53
2018-09-06T09:41:17.397Z,58.46
2018-09-06T09:51:02.779Z,55.68
2018-09-06T09:55:56.066Z,55.86
2018-09-06T10:00:49.147Z,56.28
2018-09-06T10:07:52.200Z,57.38
2018-09-06T10:12:45.319Z,56.57
2018-09-06T10:17:38.506Z,55.75
2018-09-06T10:22:32.193Z,56.12
2018-09-06T10:27:25.456Z,56.72
2018-09-06T10:32:18.585Z,56.36
2018-09-06T10:37:11.903Z,56.98
2018-09-06T10:42:05.599Z,55.71
2018-09-06T10:46:58.918Z,52.38
2018-09-06T10:51:52.119Z,53.35
2018-09-06T10:56:45.329Z,53.50
2018-09-06T11:01:38.489Z,53.72
2018-09-06T11:06:31.636Z,54.92
2018-09-06T11:11:24.893Z,55.64
2018-09-06T11:16:18.718Z,54.45
2018-09-06T11:21:11.807Z,54.73
2018-09-06T11:26:04.899Z,55.15
2018-09-06T11:30:57.926Z,53.53
2018-09-06T11:35:51.069Z,52.07
2018-09-06T11:40:44.274Z,51.12
2018-09-06T11:45:37.374Z,51.51
2018-09-06T11:50:30.495Z,50.86
2018-09-06T11:55:23.604Z,50.41
2018-09-06T12:00:16.970Z,50.85
2018-09-06T12:05:10.962Z,50.63
2018-09-06T12:10:04.408Z,50.10
2018-09-06T12:14:57.724Z,49.92
2018-09-06T12:19:51.039Z,49.71
2018-09-06T12:24:44.258Z,49.03
2018-09-06T12:29:37.590Z,50.21
2018-09-06T12:34:31.002Z,50.75
2018-09-06T12:39:24.140Z,52.07
2018-09-06T12:44:17.540Z,54.09
2018-09-06T12:49:11.606Z,55.29
2018-09-06T12:54:05.642Z,54.85
2018-09-06T12:58:58.824Z,55.28
2018-09-06T13:03:52.041Z,64.33
2018-09-06T13:08:45.060Z,69.10
2018-09-06T13:13:38.218Z,70.27
2018-09-06T13:18:31.431Z,70.20
2018-09-06T13:23:24.538Z,67.89
2018-09-06T13:28:17.662Z,67.87
2018-09-06T13:33:10.795Z,65.67
2018-09-06T13:38:03.950Z,65.30
2018-09-06T13:42:57.182Z,63.61
2018-09-06T13:47:50.234Z,62.05
2018-09-06T13:52:43.275Z,63.62
2018-09-06T13:57:36.494Z,71.76
2018-09-06T14:02:29.426Z,79.25
2018-09-06T14:07:22.462Z,82.54
2018-09-06T14:12:15.484Z,82.03
2018-09-06T14:17:08.568Z,82.55
2018-09-06T14:22:01.618Z,81.97
2018-09-06T14:26:54.717Z,81.64
2018-09-06T14:31:47.788Z,79.12
2018-09-06T14:36:42.048Z,79.68
2018-09-06T14:41:35.214Z,81.70
2018-09-06T14:46:29.333Z,80.69
2018-09-06T14:51:22.321Z,80.53
2018-09-06T14:56:15.446Z,82.37
2018-09-06T15:01:08.562Z,83.61
2018-09-06T15:06:02.760Z,82.75
2018-09-06T15:10:56.050Z,80.30
2018-09-06T15:15:49.280Z,78.91
2018-09-06T15:20:42.368Z,77.19
2018-09-06T15:25:35.437Z,76.39
2018-09-06T15:30:28.517Z,78.26
2018-09-06T15:35:21.904Z,77.97
2018-09-06T15:40:14.989Z,77.84
2018-09-06T15:45:08.291Z,77.45
2018-09-06T15:50:01.646Z,77.44
2018-09-06T15:54:54.863Z,80.55
2018-09-06T15:59:47.928Z,81.47
2018-09-06T16:04:40.927Z,80.11
2018-09-06T16:09:34.189Z,79.67
2018-09-06T16:14:27.315Z,80.30
2018-09-06T16:19:20.446Z,81.44
2018-09-06T16:24:13.619Z,80.00
2018-09-06T16:29:06.779Z,80.59
2018-09-06T16:33:59.792Z,84.21
2018-09-06T16:38:52.886Z,85.31
2018-09-06T16:43:45.993Z,86.03
2018-09-06T16:48:39.005Z,86.70
2018-09-06T16:53:31.979Z,87.44
2018-09-06T16:58:25.160Z,88.35
2018-09-06T17:03:18.230Z,86.87
2018-09-06T17:08:11.347Z,84.41
2018-09-06T17:13:04.762Z,83.47
2018-09-06T17:17:58.103Z,81.83
2018-09-06T17:22:51.223Z,80.53
2018-09-06T17:27:44.249Z,80.62
2018-09-06T17:32:39.356Z,82.03
2018-09-06T17:37:33.437Z,81.56
2018-09-06T17:42:28.127Z,80.74
2018-09-06T17:47:21.311Z,78.54
2018-09-06T17:52:14.523Z,77.53
2018-09-06T17:57:07.769Z,78.01
2018-09-06T18:02:01.143Z,77.94
2018-09-06T18:06:54.474Z,78.57
2018-09-06T18:11:47.679Z,79.40
2018-09-06T18:16:42.470Z,79.33
2018-09-06T18:21:35.847Z,78.21
2018-09-06T18:26:29.863Z,77.19
2018-09-06T18:31:23.571Z,76.16
2018-09-06T18:36:16.631Z,76.50
2018-09-06T18:41:10.238Z,76.67
2018-09-06T18:46:03.509Z,77.19
2018-09-06T18:50:56.499Z,76.64
2018-09-06T18:55:49.706Z,76.37
2018-09-06T19:00:42.975Z,76.83
2018-09-06T19:05:36.332Z,76.23
2018-09-06T19:10:30.075Z,76.59
2018-09-06T19:15:23.500Z,76.64
2018-09-06T19:20:17.067Z,76.62
2018-09-06T19:25:10.328Z,75.61
2018-09-06T19:30:08.426Z,76.40
2018-09-06T19:35:01.991Z,75.67
2018-09-06T19:39:55.327Z,75.56
2018-09-06T19:44:50.106Z,75.19
2018-09-06T19:49:43.435Z,75.32
2018-09-06T19:54:36.923Z,75.68
2018-09-06T19:59:29.910Z,75.32
2018-09-06T20:04:23.204Z,75.83
2018-09-06T20:09:16.253Z,75.53
2018-09-06T20:14:09.316Z,75.17
2018-09-06T20:19:02.537Z,74.51
2018-09-06T20:23:55.836Z,73.70
2018-09-06T20:28:48.947Z,74.41
2018-09-06T20:33:42.162Z,75.15
2018-09-06T20:38:35.347Z,76.51
2018-09-06T20:43:28.341Z,76.98
2018-09-06T20:48:21.575Z,76.46
2018-09-06T20:53:14.785Z,75.49
2018-09-06T20:58:08.180Z,75.80
2018-09-06T21:03:01.256Z,75.94
2018-09-06T21:07:54.451Z,76.12
2018-09-06T21:12:47.911Z,76.09
2018-09-06T21:17:40.938Z,75.93
2018-09-06T21:22:34.525Z,75.48
2018-09-06T21:27:27.898Z,72.84
2018-09-06T21:32:21.217Z,74.38
2018-09-06T21:37:14.376Z,74.80
2018-09-06T21:42:07.665Z,74.33
2018-09-06T21:47:00.738Z,73.37
2018-09-06T21:51:53.975Z,72.84
2018-09-06T21:56:47.339Z,72.44
2018-09-06T22:01:40.946Z,75.53
2018-09-06T22:06:34.535Z,77.46
2018-09-06T22:11:27.557Z,77.25
2018-09-06T22:16:20.584Z,76.69
2018-09-06T22:21:14.368Z,75.76
2018-09-06T22:26:07.407Z,76.23
2018-09-06T22:31:00.590Z,77.40
2018-09-06T22:35:53.825Z,77.78
2018-09-06T22:40:47.020Z,78.48
2018-09-06T22:45:40.095Z,77.81
2018-09-06T22:50:33.155Z,75.53
2018-09-06T22:55:26.895Z,73.51
2018-09-06T23:00:20.754Z,72.35
2018-09-06T23:05:14.265Z,72.39
2018-09-06T23:10:08.625Z,70.93
2018-09-06T23:15:01.632Z,74.04
2018-09-06T23:19:54.825Z,75.93
2018-09-06T23:24:47.834Z,77.92
2018-09-06T23:29:40.737Z,79.37
2018-09-06T23:34:36.173Z,80.44
2018-09-06T23:39:29.130Z,80.77
2018-09-06T23:44:23.324Z,80.61
2018-09-06T23:49:16.425Z,81.24
2018-09-06T23:54:09.646Z,82.80
2018-09-06T23:59:02.907Z,83.14
